createdAt,value
2017-11-19T00:09:34.161Z,44.49
2017-11-19T00:12:01.362Z,44.45
2017-11-19T00:17:08.184Z,44.48
2017-11-19T00:37:23.667Z,44.40
2017-11-19T00:39:50.901Z,44.38
2017-11-19T00:44:51.335Z,44.41
2017-11-19T00:47:18.618Z,44.39
2017-11-19T00:49:45.867Z,44.36
2017-11-19T00:52:13.126Z,44.37
2017-11-19T00:54:40.356Z,44.35
2017-11-19T00:57:07.562Z,44.37
2017-11-19T00:59:42.015Z,44.34
2017-11-19T01:02:18.814Z,44.33
2017-11-19T03:52:06.099Z,44.13
2017-11-19T04:58:35.853Z,43.99
2017-11-19T05:24:13.089Z,43.92
2017-11-19T05:38:32.503Z,43.94
2017-11-19T07:54:15.286Z,42.51
2017-11-19T07:56:42.530Z,42.31
2017-11-19T07:59:09.694Z,42.30
2017-11-19T08:01:36.925Z,42.34
2017-11-19T08:04:04.157Z,42.40
2017-11-19T08:06:31.472Z,42.20
2017-11-19T08:08:58.733Z,42.04
2017-11-19T08:11:25.920Z,42.01
2017-11-19T08:13:53.134Z,42.07
2017-11-19T08:16:20.381Z,42.06
2017-11-19T08:18:47.569Z,42.12
2017-11-19T08:21:14.761Z,41.84
2017-11-19T08:23:42.018Z,41.80
2017-11-19T08:26:09.229Z,41.70
2017-11-19T08:28:36.429Z,41.68
2017-11-19T08:31:03.615Z,41.74
2017-11-19T08:33:30.850Z,41.62
2017-11-19T08:35:58.040Z,41.64
2017-11-19T08:38:25.294Z,41.54
2017-11-19T08:40:52.532Z,41.48
2017-11-19T08:43:19.705Z,41.51
2017-11-19T08:45:46.898Z,41.58
2017-11-19T08:48:14.100Z,41.53
2017-11-19T08:50:41.297Z,41.36
2017-11-19T08:53:08.513Z,41.41
2017-11-19T08:55:35.778Z,41.41
2017-11-19T08:58:03.056Z,41.48
2017-11-19T09:00:31.794Z,41.29
2017-11-19T09:02:59.086Z,41.24
2017-11-19T09:46:13.636Z,40.93
2017-11-19T10:15:08.177Z,40.63
2017-11-19T13:22:31.677Z,41.54
2017-11-19T13:24:58.868Z,41.57
2017-11-19T13:27:26.035Z,41.51
2017-11-19T13:29:53.290Z,41.52
2017-11-19T13:32:20.518Z,41.51
2017-11-19T13:34:47.738Z,41.48
2017-11-19T13:37:15.022Z,41.53
2017-11-19T13:39:42.277Z,41.51
2017-11-19T13:42:09.550Z,41.52
2017-11-19T13:44:36.873Z,41.52
2017-11-19T13:47:04.065Z,41.47
2017-11-19T13:52:34.268Z,41.47
2017-11-19T13:55:01.441Z,41.46
2017-11-19T15:53:15.021Z,41.35
2017-11-19T18:58:43.817Z,42.42
2017-11-19T19:01:11.102Z,42.47
2017-11-19T19:03:38.382Z,42.51
2017-11-19T19:06:05.658Z,42.60
2017-11-19T19:08:32.942Z,42.60
2017-11-19T19:11:00.274Z,42.65
2017-11-19T19:13:27.709Z,42.69
2017-11-19T19:27:07.260Z,42.88
2017-11-19T19:29:34.583Z,42.93
2017-11-19T19:32:01.883Z,42.96
2017-11-19T20:18:25.049Z,43.30
2017-11-19T20:20:52.303Z,43.28
2017-11-19T20:23:20.499Z,43.28
2017-11-19T20:25:47.862Z,43.29
2017-11-19T20:28:15.197Z,43.30
2017-11-19T20:30:42.489Z,43.27
2017-11-19T20:33:09.762Z,43.27
2017-11-19T20:35:37.062Z,43.25
2017-11-19T20:38:04.318Z,43.26
2017-11-19T20:40:31.643Z,43.29
2017-11-19T20:42:58.943Z,43.32
2017-11-19T20:45:26.158Z,43.33
2017-11-19T20:47:53.490Z,43.37
2017-11-19T20:50:20.762Z,43.37
2017-11-19T20:52:48.102Z,43.37
2017-11-19T20:55:15.382Z,43.37
2017-11-19T20:57:43.731Z,43.32
2017-11-19T21:00:11.169Z,43.27
2017-11-19T21:02:38.461Z,43.28
2017-11-19T22:46:34.396Z,42.70
2017-11-19T22:55:10.615Z,42.71
